createdAt,value
2019-02-11T00:01:30.735Z,98880.09
2019-02-11T00:04:04.728Z,98893.05
2019-02-11T00:06:39.779Z,98895.08
2019-02-11T00:09:17.669Z,98896.50
2019-02-11T00:12:08.058Z,98909.31
2019-02-11T00:14:42.337Z,98922.28
2019-02-11T00:17:17.997Z,98920.42
2019-02-11T00:19:51.639Z,98914.80
2019-02-11T00:22:24.348Z,98924.70
2019-02-11T00:24:57.362Z,98931.53
2019-02-11T00:27:30.700Z,98935.70
2019-02-11T00:30:05.291Z,98951.10
2019-02-11T00:32:39.706Z,98946.66
2019-02-11T00:35:14.450Z,98950.98
2019-02-11T00:37:47.627Z,98961.62
2019-02-11T00:40:21.544Z,98956.57
2019-02-11T00:42:54.202Z,98978.58
2019-02-11T00:45:29.031Z,98971.64
2019-02-11T00:48:03.613Z,98982.42
2019-02-11T00:50:36.828Z,98987.08
2019-02-11T00:53:09.736Z,98991.20
2019-02-11T00:55:43.714Z,99002.98
2019-02-11T00:58:19.639Z,99011.40
2019-02-11T01:00:53.229Z,99021.20
2019-02-11T01:03:26.477Z,99035.13
2019-02-11T01:05:59.938Z,99026.36
2019-02-11T01:08:32.769Z,99030.91
2019-02-11T01:11:05.625Z,99033.32
2019-02-11T01:13:38.252Z,99042.13
2019-02-11T01:16:11.022Z,99044.20
2019-02-11T01:18:43.945Z,99046.02
2019-02-11T01:21:16.561Z,99056.70
2019-02-11T01:23:49.156Z,99063.94
2019-02-11T01:26:22.341Z,99068.75
2019-02-11T01:28:55.124Z,99070.34
2019-02-11T01:31:27.712Z,99070.13
2019-02-11T01:34:00.930Z,99079.27
2019-02-11T01:36:33.467Z,99082.89
2019-02-11T01:39:08.525Z,99094.06
2019-02-11T01:41:42.101Z,99089.68
2019-02-11T01:44:14.913Z,99097.34
2019-02-11T01:46:47.409Z,99099.71
2019-02-11T01:49:20.644Z,99114.22
2019-02-11T01:51:53.764Z,99112.41
2019-02-11T01:54:26.435Z,99111.33
2019-02-11T01:56:59.801Z,99109.56
2019-02-11T01:59:33.327Z,99107.88
2019-02-11T02:02:06.045Z,99118.39
2019-02-11T02:04:39.189Z,99123.83
2019-02-11T02:07:13.312Z,99128.15
2019-02-11T02:09:45.985Z,99132.08
2019-02-11T02:12:19.978Z,99129.42
2019-02-11T02:14:53.339Z,99136.48
2019-02-11T02:17:25.989Z,99138.25
2019-02-11T02:19:58.893Z,99148.88
2019-02-11T02:22:31.558Z,99161.72
2019-02-11T02:25:04.779Z,99177.31
2019-02-11T02:27:38.886Z,99184.73
2019-02-11T02:30:14.127Z,99182.88
2019-02-11T02:32:46.753Z,99170.98
2019-02-11T02:35:19.695Z,99204.27
2019-02-11T02:37:52.937Z,99192.65
2019-02-11T02:40:25.698Z,99200.21
2019-02-11T02:43:02.353Z,99203.94
2019-02-11T02:45:34.986Z,99208.09
2019-02-11T02:48:07.972Z,99223.01
2019-02-11T02:50:40.718Z,99222.91
2019-02-11T02:53:14.382Z,99206.03
2019-02-11T02:55:48.485Z,99214.70
2019-02-11T02:58:21.952Z,99216.28
2019-02-11T03:00:58.817Z,99230.27
2019-02-11T03:03:38.605Z,99230.42
2019-02-11T03:06:11.334Z,99235.05
2019-02-11T03:08:44.360Z,99243.03
2019-02-11T03:11:17.120Z,99253.33
2019-02-11T03:13:49.708Z,99249.02
2019-02-11T03:16:24.880Z,99252.73
2019-02-11T03:18:57.474Z,99260.85
2019-02-11T03:21:30.097Z,99260.31
2019-02-11T03:24:03.126Z,99268.03
2019-02-11T03:26:35.792Z,99273.70
2019-02-11T03:29:08.428Z,99271.77
2019-02-11T03:31:42.593Z,99275.48
2019-02-11T03:34:15.205Z,99276.59
2019-02-11T03:36:47.775Z,99285.70
2019-02-11T03:39:21.326Z,99294.09
2019-02-11T03:41:58.350Z,99296.84
2019-02-11T03:44:33.156Z,99298.22
2019-02-11T03:47:07.724Z,99310.45
2019-02-11T03:49:45.333Z,99304.64
2019-02-11T03:52:18.830Z,99313.03
2019-02-11T03:54:52.447Z,99317.69
2019-02-11T03:57:26.083Z,99335.72
2019-02-11T03:59:59.867Z,99345.59
2019-02-11T04:02:35.873Z,99346.74
2019-02-11T04:05:09.878Z,99351.00
2019-02-11T04:07:42.797Z,99348.55
2019-02-11T04:10:16.272Z,99357.31
2019-02-11T04:12:57.646Z,99362.24
2019-02-11T04:15:31.388Z,99370.19
2019-02-11T04:18:05.297Z,99377.61
2019-02-11T04:20:39.634Z,99389.06
2019-02-11T04:23:13.971Z,99407.52
2019-02-11T04:25:46.984Z,99401.93
2019-02-11T04:28:20.401Z,99418.43
2019-02-11T04:30:56.781Z,99415.91
2019-02-11T04:33:31.986Z,99413.09
2019-02-11T04:36:06.338Z,99420.30
2019-02-11T04:38:39.023Z,99424.77
2019-02-11T04:41:11.906Z,99426.38
2019-02-11T04:43:44.651Z,99429.48
2019-02-11T04:46:19.134Z,99445.29
2019-02-11T04:48:52.065Z,99436.80
2019-02-11T04:51:27.628Z,99436.69
2019-02-11T04:54:01.098Z,99438.94
2019-02-11T04:56:34.993Z,99447.95
2019-02-11T04:59:07.669Z,99449.65
2019-02-11T05:01:40.919Z,99455.09
2019-02-11T05:04:13.919Z,99457.32
2019-02-11T05:06:46.456Z,99480.38
2019-02-11T05:09:19.059Z,99472.42
2019-02-11T05:11:51.975Z,99475.98
2019-02-11T05:14:25.057Z,99487.22
2019-02-11T05:16:58.113Z,99493.85
2019-02-11T05:19:30.810Z,99500.05
2019-02-11T05:22:03.353Z,99500.66
2019-02-11T05:24:36.162Z,99496.91
2019-02-11T05:27:09.629Z,99508.29
2019-02-11T05:29:43.540Z,99509.25
2019-02-11T05:32:17.512Z,99504.61
2019-02-11T05:34:50.177Z,99509.75
2019-02-11T05:37:23.097Z,99507.75
2019-02-11T05:39:55.799Z,99517.97
2019-02-11T05:42:28.545Z,99522.83
2019-02-11T05:45:03.883Z,99520.09
2019-02-11T05:47:36.767Z,99525.45
2019-02-11T05:50:10.519Z,99530.59
2019-02-11T05:52:44.425Z,99542.38
2019-02-11T05:55:17.075Z,99542.19
2019-02-11T05:57:49.709Z,99561.81
2019-02-11T06:00:23.458Z,99555.72
2019-02-11T06:02:57.075Z,99559.06
2019-02-11T06:05:31.225Z,99565.81
2019-02-11T06:08:04.113Z,99572.48
2019-02-11T06:10:36.895Z,99583.36
2019-02-11T06:13:10.110Z,99582.19
2019-02-11T06:15:42.982Z,99583.81
2019-02-11T06:18:15.866Z,99599.02
2019-02-11T06:20:49.426Z,99604.80
2019-02-11T06:23:22.674Z,99612.52
2019-02-11T06:25:57.215Z,99622.48
2019-02-11T06:28:29.824Z,99627.19
2019-02-11T06:31:02.453Z,99635.63
2019-02-11T06:33:35.234Z,99643.19
2019-02-11T06:36:12.399Z,99649.81
2019-02-11T06:38:46.912Z,99653.09
2019-02-11T06:41:21.129Z,99660.42
2019-02-11T06:43:54.268Z,99674.22
2019-02-11T06:46:26.934Z,99680.45
2019-02-11T06:48:59.481Z,99685.38
2019-02-11T06:51:43.227Z,99698.02
2019-02-11T06:54:16.068Z,99706.30
2019-02-11T06:56:50.062Z,99711.72
2019-02-11T06:59:25.693Z,99720.86
2019-02-11T07:02:01.040Z,99722.81
2019-02-11T07:04:34.591Z,99731.97
2019-02-11T07:07:07.566Z,99745.30
2019-02-11T07:09:41.442Z,99743.16
2019-02-11T07:12:14.659Z,99753.05
2019-02-11T07:14:47.986Z,99761.69
2019-02-11T07:17:20.759Z,99766.77
2019-02-11T07:19:53.736Z,99777.92
2019-02-11T07:22:26.374Z,99769.31
2019-02-11T07:24:59.766Z,99776.97
2019-02-11T07:27:34.929Z,99779.07
2019-02-11T07:30:13.534Z,99786.14
2019-02-11T07:32:47.314Z,99784.39
2019-02-11T07:35:22.059Z,99789.91
2019-02-11T07:37:54.938Z,99799.43
2019-02-11T07:40:29.318Z,99811.21
2019-02-11T07:43:15.043Z,99817.57
2019-02-11T07:45:52.509Z,99824.61
2019-02-11T07:48:29.578Z,99818.11
2019-02-11T07:51:09.372Z,99821.17
2019-02-11T07:53:42.956Z,99830.79
2019-02-11T07:56:15.756Z,99828.06
2019-02-11T07:58:51.102Z,99837.69
2019-02-11T08:01:23.726Z,99841.73
2019-02-11T08:03:58.392Z,99846.39
2019-02-11T08:06:31.407Z,99846.41
2019-02-11T08:09:08.724Z,99850.56
2019-02-11T08:11:41.665Z,99855.23
2019-02-11T08:14:17.108Z,99857.79
2019-02-11T08:16:51.117Z,99860.70
2019-02-11T08:19:24.251Z,99863.42
2019-02-11T08:22:01.293Z,99878.53
2019-02-11T08:24:34.404Z,99889.24
2019-02-11T08:27:08.979Z,99892.55
2019-02-11T08:29:42.772Z,99893.56
2019-02-11T08:32:17.718Z,99901.87
2019-02-11T08:34:52.527Z,99906.45
2019-02-11T08:37:25.474Z,99909.22
2019-02-11T08:39:59.270Z,99918.42
2019-02-11T08:42:32.921Z,99919.32
2019-02-11T08:45:09.607Z,99906.87
2019-02-11T08:47:43.408Z,99927.16
2019-02-11T08:50:20.138Z,99938.79
2019-02-11T08:52:55.770Z,99936.38
2019-02-11T08:55:28.451Z,99937.94
2019-02-11T08:58:02.240Z,99945.88
2019-02-11T09:00:42.865Z,99957.98
2019-02-11T09:03:18.426Z,99957.62
2019-02-11T09:05:53.260Z,99964.83
2019-02-11T09:08:26.405Z,99966.61
2019-02-11T09:11:02.857Z,99971.77
2019-02-11T09:13:36.999Z,99979.41
2019-02-11T09:16:11.078Z,99988.95
2019-02-11T09:18:47.059Z,99993.27
2019-02-11T09:21:23.929Z,99994.27
2019-02-11T09:23:57.466Z,99990.44
2019-02-11T09:26:31.507Z,99994.32
2019-02-11T09:29:04.191Z,100000.50
2019-02-11T09:31:37.489Z,100000.88
2019-02-11T09:34:12.356Z,100017.03
2019-02-11T09:36:45.356Z,100015.42
2019-02-11T09:39:18.088Z,100022.67
2019-02-11T09:41:52.178Z,100020.38
2019-02-11T09:44:29.695Z,100020.99
2019-02-11T09:47:15.794Z,100035.52
2019-02-11T09:50:22.177Z,100035.83
2019-02-11T09:52:57.988Z,100053.64
2019-02-11T09:55:35.217Z,100059.73
2019-02-11T09:58:10.932Z,100069.10
2019-02-11T10:00:46.936Z,100058.45
2019-02-11T10:03:20.900Z,100073.12
2019-02-11T10:05:56.313Z,100074.49
2019-02-11T10:08:31.065Z,100077.31
2019-02-11T10:11:03.639Z,100079.92
2019-02-11T10:13:38.028Z,100087.89
2019-02-11T10:16:14.919Z,100090.78
2019-02-11T10:18:48.556Z,100096.05
2019-02-11T10:21:22.858Z,100103.70
2019-02-11T10:24:08.793Z,100105.38
2019-02-11T10:26:47.159Z,100114.20
2019-02-11T10:29:33.332Z,100109.88
2019-02-11T10:32:20.603Z,100110.84
2019-02-11T10:34:55.496Z,100109.16
2019-02-11T10:37:36.885Z,100114.69
2019-02-11T10:40:12.004Z,100122.38
2019-02-11T10:42:44.560Z,100117.24
2019-02-11T10:45:17.416Z,100121.48
2019-02-11T10:47:54.635Z,100121.19
2019-02-11T10:50:28.791Z,100128.75
2019-02-11T10:53:02.995Z,100133.36
2019-02-11T10:55:42.281Z,100135.60
2019-02-11T10:58:16.587Z,100145.47
2019-02-11T11:00:52.922Z,100145.42
2019-02-11T11:03:25.528Z,100147.88
2019-02-11T11:06:01.207Z,100147.91
2019-02-11T11:08:35.765Z,100162.45
2019-02-11T11:11:10.308Z,100155.28
2019-02-11T11:13:43.120Z,100162.70
2019-02-11T11:16:18.712Z,100173.63
2019-02-11T11:18:51.684Z,100169.26
2019-02-11T11:21:26.017Z,100178.75
2019-02-11T11:24:00.180Z,100182.31
2019-02-11T11:26:49.848Z,100176.73
2019-02-11T11:29:38.036Z,100182.19
2019-02-11T11:32:12.244Z,100181.70
2019-02-11T11:34:48.636Z,100192.17
2019-02-11T11:37:23.478Z,100194.36
2019-02-11T11:39:56.277Z,100186.59
2019-02-11T11:42:29.107Z,100200.19
2019-02-11T11:45:04.902Z,100214.73
2019-02-11T11:47:37.684Z,100218.80
2019-02-11T11:50:11.764Z,100212.67
2019-02-11T11:52:45.505Z,100230.48
2019-02-11T11:55:20.042Z,100234.19
2019-02-11T11:57:53.753Z,100241.09
2019-02-11T12:00:31.423Z,100250.06
2019-02-11T12:03:05.700Z,100254.51
2019-02-11T12:05:43.705Z,100257.69
2019-02-11T12:08:17.355Z,100261.43
2019-02-11T12:10:50.108Z,100261.95
2019-02-11T12:13:25.474Z,100263.48
2019-02-11T12:15:59.464Z,100270.79
2019-02-11T12:18:37.292Z,100281.86
2019-02-11T12:21:09.907Z,100290.70
2019-02-11T12:23:44.082Z,100302.17
2019-02-11T12:26:21.303Z,100303.18
2019-02-11T12:28:56.068Z,100304.92
2019-02-11T12:31:29.307Z,100314.94
2019-02-11T12:34:08.705Z,100310.12
2019-02-11T12:36:45.554Z,100320.38
2019-02-11T12:39:18.461Z,100317.34
2019-02-11T12:41:51.545Z,100314.69
2019-02-11T12:44:26.388Z,100321.83
2019-02-11T12:47:13.388Z,100323.73
2019-02-11T12:49:48.415Z,100334.64
2019-02-11T12:52:22.062Z,100348.09
2019-02-11T12:54:55.371Z,100348.28
2019-02-11T12:57:28.400Z,100355.66
2019-02-11T13:00:01.130Z,100353.68
2019-02-11T13:02:37.827Z,100354.95
2019-02-11T13:05:15.370Z,100360.69
2019-02-11T13:07:48.245Z,100359.37
2019-02-11T13:10:21.073Z,100360.88
2019-02-11T13:12:53.815Z,100362.47
2019-02-11T13:15:56.586Z,100363.39
2019-02-11T13:18:32.918Z,100377.08
2019-02-11T13:21:06.514Z,100380.66
2019-02-11T13:23:40.335Z,100384.23
2019-02-11T13:26:14.826Z,100390.14
2019-02-11T13:28:50.441Z,100387.46
2019-02-11T13:31:25.718Z,100404.08
2019-02-11T13:34:00.403Z,100408.66
2019-02-11T13:36:34.612Z,100419.25
2019-02-11T13:39:07.719Z,100430.07
2019-02-11T13:41:40.543Z,100428.95
2019-02-11T13:44:16.612Z,100421.85
2019-02-11T13:46:51.065Z,100438.69
2019-02-11T13:49:23.926Z,100451.33
2019-02-11T13:51:57.557Z,100460.31
2019-02-11T13:54:30.295Z,100467.00
2019-02-11T13:57:05.148Z,100478.87
2019-02-11T13:59:40.944Z,100486.05
2019-02-11T14:02:15.645Z,100496.97
2019-02-11T14:04:48.739Z,100495.24
2019-02-11T14:07:24.437Z,100480.74
2019-02-11T14:10:01.483Z,100480.94
2019-02-11T14:12:36.485Z,100479.72
2019-02-11T14:15:13.374Z,100482.57
2019-02-11T14:17:47.562Z,100489.69
2019-02-11T14:20:25.118Z,100502.74
2019-02-11T14:22:58.484Z,100512.22
2019-02-11T14:25:43.890Z,100515.81
2019-02-11T14:28:25.600Z,100520.01
2019-02-11T14:31:00.239Z,100526.73
2019-02-11T14:33:35.181Z,100532.01
2019-02-11T14:36:19.781Z,100533.64
2019-02-11T14:38:54.056Z,100539.56
2019-02-11T14:41:28.701Z,100537.80
2019-02-11T14:44:03.022Z,100539.17
2019-02-11T14:46:37.864Z,100542.03
2019-02-11T14:49:10.621Z,100541.95
2019-02-11T14:51:44.043Z,100559.30
2019-02-11T14:54:18.611Z,100558.22
2019-02-11T14:56:53.258Z,100560.30
2019-02-11T14:59:30.324Z,100556.55
2019-02-11T15:02:04.047Z,100561.88
2019-02-11T15:04:47.462Z,100563.92
2019-02-11T15:07:23.735Z,100564.09
2019-02-11T15:10:00.311Z,100572.89
2019-02-11T15:12:34.278Z,100569.27
2019-02-11T15:15:09.967Z,100565.34
2019-02-11T15:17:46.314Z,100572.33
2019-02-11T15:20:21.016Z,100569.91
2019-02-11T15:22:55.719Z,100573.88
2019-02-11T15:25:28.358Z,100579.90
2019-02-11T15:28:02.681Z,100594.14
2019-02-11T15:30:39.603Z,100595.79
2019-02-11T15:33:14.813Z,100602.50
2019-02-11T15:35:53.793Z,100615.66
2019-02-11T15:38:33.844Z,100625.20
2019-02-11T15:41:17.129Z,100629.36
2019-02-11T15:43:50.175Z,100624.47
2019-02-11T15:46:24.768Z,100636.20
2019-02-11T15:49:01.766Z,100642.63
2019-02-11T15:51:35.268Z,100648.16
2019-02-11T15:54:09.680Z,100650.33
2019-02-11T15:56:44.566Z,100660.29
2019-02-11T15:59:17.300Z,100662.20
2019-02-11T16:01:50.461Z,100668.20
2019-02-11T16:04:26.038Z,100672.82
2019-02-11T16:07:00.358Z,100678.72
2019-02-11T16:09:33.832Z,100685.47
2019-02-11T16:12:10.672Z,100693.09
2019-02-11T16:14:54.400Z,100700.11
2019-02-11T16:17:28.002Z,100712.91
2019-02-11T16:20:11.963Z,100717.97
2019-02-11T16:22:49.363Z,100727.70
2019-02-11T16:25:22.736Z,100744.39
2019-02-11T16:27:59.920Z,100751.27
2019-02-11T16:30:33.821Z,100771.59
2019-02-11T16:33:10.153Z,100770.89
2019-02-11T16:35:44.090Z,100786.69
2019-02-11T16:38:18.736Z,100788.90
2019-02-11T16:40:52.620Z,100803.27
2019-02-11T16:43:25.499Z,100803.46
2019-02-11T16:45:59.805Z,100811.42
2019-02-11T16:48:34.574Z,100819.77
2019-02-11T16:51:09.831Z,100829.84
2019-02-11T16:53:45.935Z,100836.64
2019-02-11T16:56:20.758Z,100851.55
2019-02-11T16:58:54.069Z,100854.69
2019-02-11T17:01:26.769Z,100869.33
2019-02-11T17:04:00.374Z,100871.06
2019-02-11T17:06:34.631Z,100878.88
2019-02-11T17:09:10.423Z,100883.31
2019-02-11T17:11:46.415Z,100891.59
2019-02-11T17:14:21.190Z,100887.52
2019-02-11T17:16:54.723Z,100898.03
2019-02-11T17:19:27.430Z,100909.33
2019-02-11T17:22:01.595Z,100915.24
2019-02-11T17:24:35.444Z,100924.70
2019-02-11T17:27:09.176Z,100936.09
2019-02-11T17:29:43.069Z,100930.97
2019-02-11T17:32:16.690Z,100930.77
2019-02-11T17:34:55.956Z,100944.52
2019-02-11T17:37:30.495Z,100952.31
2019-02-11T17:40:05.859Z,100962.34
2019-02-11T17:42:40.064Z,100967.42
2019-02-11T17:45:19.869Z,100985.70
2019-02-11T17:47:57.028Z,100994.76
2019-02-11T17:50:33.665Z,101000.15
2019-02-11T17:53:10.685Z,100999.75
2019-02-11T17:55:46.916Z,100997.19
2019-02-11T17:58:22.177Z,100986.58
2019-02-11T18:00:59.545Z,100990.47
2019-02-11T18:03:33.304Z,100997.44
2019-02-11T18:06:07.698Z,100995.87
2019-02-11T18:08:42.995Z,101009.95
2019-02-11T18:11:15.940Z,101013.63
2019-02-11T18:13:50.894Z,101018.61
2019-02-11T18:16:27.033Z,101027.27
2019-02-11T18:19:02.889Z,101023.84
2019-02-11T18:21:36.669Z,101019.84
2019-02-11T18:24:12.465Z,101021.50
2019-02-11T18:26:53.645Z,101019.03
2019-02-11T18:29:27.135Z,101019.66
2019-02-11T18:32:01.937Z,101024.20
2019-02-11T18:34:35.978Z,101028.06
2019-02-11T18:37:09.698Z,101029.58
2019-02-11T18:39:44.441Z,101045.98
2019-02-11T18:42:18.577Z,101054.71
2019-02-11T18:44:53.998Z,101058.04
2019-02-11T18:47:26.895Z,101071.56
2019-02-11T18:50:04.628Z,101079.18
2019-02-11T18:52:45.290Z,101078.60
2019-02-11T18:55:21.524Z,101088.16
2019-02-11T18:57:55.856Z,101092.60
2019-02-11T19:00:37.124Z,101085.33
2019-02-11T19:03:13.207Z,101096.45
2019-02-11T19:05:47.736Z,101099.31
2019-02-11T19:08:26.731Z,101098.80
2019-02-11T19:11:03.105Z,101107.80
2019-02-11T19:13:37.049Z,101117.64
2019-02-11T19:16:10.780Z,101107.02
2019-02-11T19:18:46.560Z,101101.28
2019-02-11T19:21:20.666Z,101096.78
2019-02-11T19:23:54.611Z,101099.94
2019-02-11T19:26:29.373Z,101104.41
2019-02-11T19:29:03.247Z,101084.63
2019-02-11T19:31:39.452Z,101090.94
2019-02-11T19:34:16.848Z,101082.89
2019-02-11T19:36:52.588Z,101078.89
2019-02-11T19:39:29.762Z,101086.12
2019-02-11T19:42:02.728Z,101097.61
2019-02-11T19:44:40.954Z,101106.73
2019-02-11T19:47:13.677Z,101120.23
2019-02-11T19:49:51.756Z,101125.19
2019-02-11T19:52:27.578Z,101139.86
2019-02-11T19:55:02.296Z,101146.78
2019-02-11T19:57:36.556Z,101147.84
2019-02-11T20:00:19.058Z,101144.20
2019-02-11T20:02:53.269Z,101144.20
2019-02-11T20:05:27.833Z,101141.95
2019-02-11T20:08:17.078Z,101128.37
2019-02-11T20:10:50.680Z,101138.70
2019-02-11T20:13:30.153Z,101149.77
2019-02-11T20:16:04.851Z,101152.41
2019-02-11T20:18:41.429Z,101168.01
2019-02-11T20:21:18.548Z,101167.67
2019-02-11T20:23:52.217Z,101179.68
2019-02-11T20:26:30.994Z,101185.59
2019-02-11T20:29:06.133Z,101190.23
2019-02-11T20:31:39.237Z,101194.17
2019-02-11T20:34:13.567Z,101197.86
2019-02-11T20:36:47.542Z,101200.88
2019-02-11T20:39:24.484Z,101209.48
2019-02-11T20:41:59.522Z,101215.25
2019-02-11T20:44:32.194Z,101214.55
2019-02-11T20:47:06.233Z,101222.12
2019-02-11T20:49:39.030Z,101220.78
2019-02-11T20:52:14.043Z,101225.86
2019-02-11T20:54:49.052Z,101230.73
2019-02-11T20:57:26.276Z,101234.42
2019-02-11T20:59:59.013Z,101239.84
2019-02-11T21:02:32.729Z,101241.67
2019-02-11T21:05:10.090Z,101248.58
2019-02-11T21:07:50.455Z,101243.67
2019-02-11T21:10:25.127Z,101245.98
2019-02-11T21:12:58.437Z,101241.41
2019-02-11T21:15:31.628Z,101241.88
2019-02-11T21:18:06.924Z,101243.48
2019-02-11T21:20:42.384Z,101246.98
2019-02-11T21:23:16.187Z,101254.44
2019-02-11T21:25:49.861Z,101262.05
2019-02-11T21:28:23.398Z,101271.41
2019-02-11T21:30:59.878Z,101270.97
2019-02-11T21:33:34.790Z,101281.49
2019-02-11T21:36:09.494Z,101284.36
2019-02-11T21:38:44.595Z,101290.23
2019-02-11T21:41:24.207Z,101297.06
2019-02-11T21:43:58.849Z,101298.77
2019-02-11T21:46:32.188Z,101302.09
2019-02-11T21:49:06.160Z,101304.31
2019-02-11T21:51:42.397Z,101307.31
2019-02-11T21:54:16.093Z,101307.13
2019-02-11T21:56:52.133Z,101315.70
2019-02-11T21:59:24.893Z,101321.67
2019-02-11T22:02:00.480Z,101323.06
2019-02-11T22:04:35.051Z,101327.80
2019-02-11T22:07:08.626Z,101326.88
2019-02-11T22:09:42.707Z,101329.84
2019-02-11T22:12:16.050Z,101326.45
2019-02-11T22:14:48.847Z,101324.94
2019-02-11T22:17:24.823Z,101327.28
2019-02-11T22:20:05.633Z,101327.53
2019-02-11T22:22:41.811Z,101331.02
2019-02-11T22:25:17.207Z,101340.84
2019-02-11T22:27:51.045Z,101338.97
2019-02-11T22:30:23.949Z,101343.30
2019-02-11T22:32:57.797Z,101339.38
2019-02-11T22:35:30.450Z,101326.35
2019-02-11T22:38:05.857Z,101317.25
2019-02-11T22:40:39.615Z,101324.52
2019-02-11T22:43:13.979Z,101325.26
2019-02-11T22:45:56.755Z,101326.00
2019-02-11T22:48:31.342Z,101323.55
2019-02-11T22:51:05.100Z,101326.73
2019-02-11T22:53:39.516Z,101336.14
2019-02-11T22:56:17.204Z,101335.37
2019-02-11T22:58:51.418Z,101336.66
2019-02-11T23:01:26.997Z,101332.39
2019-02-11T23:04:00.152Z,101330.69
2019-02-11T23:06:34.339Z,101337.75
2019-02-11T23:09:11.126Z,101336.86
2019-02-11T23:11:43.909Z,101341.19
2019-02-11T23:14:16.340Z,101349.11
2019-02-11T23:16:49.380Z,101364.73
2019-02-11T23:19:21.753Z,101373.38
2019-02-11T23:21:58.369Z,101373.25
2019-02-11T23:24:32.750Z,101381.11
2019-02-11T23:27:05.383Z,101392.50
2019-02-11T23:29:39.766Z,101394.00
2019-02-11T23:32:13.223Z,101391.00
2019-02-11T23:34:47.297Z,101385.64
2019-02-11T23:37:19.968Z,101376.34
2019-02-11T23:39:52.995Z,101364.23
2019-02-11T23:42:26.320Z,101357.56
2019-02-11T23:44:58.980Z,101365.77
2019-02-11T23:47:32.200Z,101372.91
2019-02-11T23:50:07.397Z,101371.70
2019-02-11T23:52:39.941Z,101379.59
2019-02-11T23:55:19.093Z,101392.30
2019-02-11T23:57:53.051Z,101403.70
